メインページ
METAR-TAF:

METAR-TAF

空港 :

Port Meadville Airport

Meadville, ペンシルバニア州, アメリカ合衆国

緯度: 41-37-35N, 経度: 080-12-53W, 海抜: 427m

現時点の気象観測

当レポートは34分前の23:53(UTC)に作成
北/北東の風 4kt
気温 17°C
湿度 68%
気圧 1025 hPa
視程: 16.1km
晴天

METAR: KGKJ 242353Z AUTO 02004KT 10SM CLR 17/11 A3026 RMK AO2 SLP244 T01670106 10211 20167 53006 TSNO

時間: 20:27 (00:27 UTC)


TAF: 見つかりません

4,000以上の空港の気象観測と天気予報(METAR報とTAF報)

利用可能な観測所は地図上に黄色い丸と赤い丸で示す。

丸の上にカーソルを重ねると観測所名を参照できる。

次にクリックすると気象観測と天気予報を参照できる。

マップの切り替え:黒色「×」印の緑ボタンをクリックして拡大、「-」印の緑ボタンをクリックして縮小、緑色の三角印をクリックして隣りの地図に切り替え


METAR-TAF: